createdAt,value
2022-09-06T00:00:20.625Z,18.50
2022-09-06T00:02:47.631Z,18.41
2022-09-06T00:05:15.132Z,18.49
2022-09-06T00:07:42.176Z,18.45
2022-09-06T00:10:09.961Z,18.31
2022-09-06T00:12:38.144Z,18.37
2022-09-06T00:15:08.728Z,18.37
2022-09-06T00:17:37.371Z,18.40
2022-09-06T00:20:05.618Z,18.35
2022-09-06T00:22:34.713Z,18.33
2022-09-06T00:25:06.286Z,18.27
2022-09-06T00:27:33.546Z,18.25
2022-09-06T00:30:00.322Z,18.23
2022-09-06T00:32:27.066Z,18.29
2022-09-06T00:34:53.644Z,18.20
2022-09-06T00:37:20.242Z,18.21
2022-09-06T00:39:46.963Z,18.19
2022-09-06T00:42:14.205Z,18.27
2022-09-06T00:44:42.135Z,18.26
2022-09-06T00:47:09.627Z,18.31
2022-09-06T00:49:47.465Z,18.36
2022-09-06T00:52:19.888Z,18.27
2022-09-06T00:54:49.848Z,18.32
2022-09-06T00:57:19.624Z,18.28
2022-09-06T00:59:48.186Z,18.29
2022-09-06T01:02:15.186Z,18.19
2022-09-06T01:04:44.628Z,18.25
2022-09-06T01:07:19.320Z,18.29
2022-09-06T01:10:30.724Z,18.19
2022-09-06T01:13:21.625Z,18.16
2022-09-06T01:15:51.313Z,18.21
2022-09-06T01:18:31.498Z,18.14
2022-09-06T01:21:04.267Z,18.11
2022-09-06T01:23:59.900Z,18.11
2022-09-06T01:26:41.585Z,18.03
2022-09-06T01:29:19.585Z,17.96
2022-09-06T01:31:54.856Z,17.94
2022-09-06T01:34:30.303Z,17.95
2022-09-06T01:37:10.577Z,17.96
2022-09-06T01:39:39.327Z,18.00
2022-09-06T01:42:13.566Z,17.98
2022-09-06T01:44:46.355Z,17.97
2022-09-06T01:47:40.445Z,17.97
2022-09-06T01:50:32.081Z,17.95
2022-09-06T01:53:17.504Z,18.01
2022-09-06T01:55:54.658Z,17.99
2022-09-06T01:58:45.958Z,17.94
2022-09-06T02:01:17.314Z,17.90
2022-09-06T02:03:54.468Z,17.87
2022-09-06T02:06:31.826Z,17.83
2022-09-06T02:09:11.302Z,17.79
2022-09-06T02:11:47.330Z,17.78
2022-09-06T02:14:19.725Z,17.74
2022-09-06T02:16:49.816Z,17.74
2022-09-06T02:19:20.733Z,17.69
2022-09-06T02:21:49.272Z,17.63
2022-09-06T02:24:23.053Z,17.51
2022-09-06T02:26:52.245Z,17.56
2022-09-06T02:29:24.933Z,17.56
2022-09-06T02:31:59.185Z,17.45
2022-09-06T02:34:29.157Z,17.52
2022-09-06T02:36:56.519Z,17.48
2022-09-06T02:39:25.383Z,17.42
2022-09-06T02:41:58.390Z,17.45
2022-09-06T02:44:25.125Z,17.41
2022-09-06T02:46:56.339Z,17.38
2022-09-06T02:49:24.101Z,17.41
2022-09-06T02:51:51.499Z,17.36
2022-09-06T02:54:18.126Z,17.36
2022-09-06T02:56:51.986Z,17.42
2022-09-06T02:59:22.074Z,17.36
2022-09-06T03:01:48.846Z,17.37
2022-09-06T03:04:17.597Z,17.35
2022-09-06T03:06:44.123Z,17.30
2022-09-06T03:09:13.709Z,17.31
2022-09-06T03:11:43.210Z,17.26
2022-09-06T03:14:09.968Z,17.21
2022-09-06T03:16:38.518Z,17.17
2022-09-06T03:19:05.175Z,17.14
2022-09-06T03:21:58.550Z,17.15
2022-09-06T03:24:27.830Z,17.07
2022-09-06T03:26:59.121Z,17.02
2022-09-06T03:29:29.021Z,17.05
2022-09-06T03:31:57.582Z,17.02
2022-09-06T03:34:24.439Z,17.11
2022-09-06T03:36:51.004Z,17.12
2022-09-06T03:39:17.797Z,17.12
2022-09-06T03:41:47.213Z,17.08
2022-09-06T03:44:14.098Z,17.08
2022-09-06T03:46:40.681Z,17.09
2022-09-06T03:49:10.337Z,17.10
2022-09-06T03:51:38.514Z,17.01
2022-09-06T03:54:07.878Z,16.99
2022-09-06T03:56:34.596Z,17.04
2022-09-06T03:59:01.535Z,17.04
2022-09-06T04:01:28.528Z,17.08
2022-09-06T04:03:55.117Z,17.00
2022-09-06T04:06:21.674Z,17.00
2022-09-06T04:08:48.310Z,17.01
2022-09-06T04:11:16.714Z,17.00
2022-09-06T04:13:48.126Z,17.03
2022-09-06T04:16:14.984Z,17.03
2022-09-06T04:18:44.634Z,17.04
2022-09-06T04:21:13.890Z,17.06
2022-09-06T04:23:43.826Z,17.05
2022-09-06T04:26:17.008Z,17.08
2022-09-06T04:28:48.050Z,17.06
2022-09-06T04:31:17.361Z,17.07
2022-09-06T04:33:46.725Z,17.02
2022-09-06T04:36:13.618Z,17.00
2022-09-06T04:38:48.201Z,17.02
2022-09-06T04:41:17.006Z,17.03
2022-09-06T04:43:46.022Z,17.06
2022-09-06T04:46:12.600Z,17.14
2022-09-06T04:48:52.056Z,17.20
2022-09-06T04:51:25.266Z,17.27
2022-09-06T04:53:54.664Z,17.29
2022-09-06T04:56:23.145Z,17.37
2022-09-06T04:58:50.922Z,17.42
2022-09-06T05:01:20.063Z,17.41
2022-09-06T05:03:47.432Z,17.45
2022-09-06T05:06:21.561Z,17.52
2022-09-06T05:08:48.950Z,17.46
2022-09-06T05:11:17.028Z,17.51
2022-09-06T05:13:45.138Z,17.54
2022-09-06T05:16:12.045Z,17.53
2022-09-06T05:18:38.734Z,17.56
2022-09-06T05:21:07.603Z,17.58
2022-09-06T05:23:34.142Z,17.58
2022-09-06T05:26:00.717Z,17.64
2022-09-06T05:28:27.351Z,17.68
2022-09-06T05:30:53.920Z,17.74
2022-09-06T05:33:22.772Z,17.81
2022-09-06T05:35:49.728Z,17.88
2022-09-06T05:38:16.482Z,17.93
2022-09-06T05:40:43.480Z,17.99
2022-09-06T05:43:10.005Z,18.04
2022-09-06T05:45:36.723Z,18.09
2022-09-06T05:48:03.634Z,18.13
2022-09-06T05:50:30.141Z,18.20
2022-09-06T05:52:57.630Z,18.26
2022-09-06T05:55:24.243Z,18.32
2022-09-06T05:57:50.727Z,18.33
2022-09-06T06:00:17.497Z,18.37
2022-09-06T06:02:48.046Z,18.38
2022-09-06T06:05:15.348Z,18.36
2022-09-06T06:07:42.645Z,18.49
2022-09-06T06:10:09.817Z,18.64
2022-09-06T06:12:36.362Z,18.83
2022-09-06T06:15:05.367Z,18.96
2022-09-06T06:17:31.832Z,19.01
2022-09-06T06:19:58.582Z,19.10
2022-09-06T06:22:25.154Z,19.06
2022-09-06T06:24:51.588Z,19.02
2022-09-06T06:27:18.063Z,19.02
2022-09-06T06:29:44.594Z,18.99
2022-09-06T06:32:11.100Z,19.00
2022-09-06T06:34:37.644Z,19.04
2022-09-06T06:37:04.112Z,19.06
2022-09-06T06:39:30.691Z,19.15
2022-09-06T06:41:57.229Z,19.23
2022-09-06T06:44:23.761Z,19.21
2022-09-06T06:46:50.376Z,19.28
2022-09-06T06:49:17.001Z,19.35
2022-09-06T06:51:43.539Z,19.48
2022-09-06T06:54:10.156Z,19.60
2022-09-06T06:56:38.923Z,19.78
2022-09-06T06:59:07.770Z,19.96
2022-09-06T07:01:35.997Z,20.20
2022-09-06T07:04:03.532Z,20.38
2022-09-06T07:09:19.201Z,20.76
2022-09-06T07:11:48.602Z,20.87
2022-09-06T07:14:16.390Z,20.95
2022-09-06T07:16:43.703Z,20.99
2022-09-06T07:22:00.297Z,21.01
2022-09-06T07:24:29.177Z,21.02
2022-09-06T07:29:48.403Z,21.24
2022-09-06T07:32:14.955Z,21.31
2022-09-06T07:34:41.660Z,21.44
2022-09-06T07:37:08.514Z,21.53
2022-09-06T07:39:37.033Z,21.51
2022-09-06T07:42:03.935Z,21.54
2022-09-06T07:44:30.645Z,21.70
2022-09-06T07:55:16.704Z,22.24
2022-09-06T07:57:43.415Z,22.31
2022-09-06T08:00:11.365Z,22.39
2022-09-06T08:02:38.017Z,22.60
2022-09-06T08:10:38.030Z,22.64
2022-09-06T08:13:06.621Z,22.57
2022-09-06T08:15:33.579Z,23.00
2022-09-06T08:18:00.261Z,23.41
2022-09-06T08:20:26.815Z,23.30
2022-09-06T08:22:53.268Z,23.27
2022-09-06T08:25:22.063Z,22.94
2022-09-06T08:27:48.582Z,22.83
2022-09-06T08:30:15.176Z,23.03
2022-09-06T08:32:42.818Z,23.12
2022-09-06T08:35:09.714Z,23.20
2022-09-06T08:37:36.387Z,23.36
2022-09-06T08:40:04.038Z,23.34
2022-09-06T08:42:32.650Z,23.40
2022-09-06T08:45:00.587Z,23.48
2022-09-06T08:47:27.314Z,23.63
2022-09-06T08:50:02.469Z,23.65
2022-09-06T08:53:17.923Z,23.69
2022-09-06T08:55:55.837Z,24.09
2022-09-06T08:58:45.797Z,23.90
2022-09-06T09:01:15.543Z,23.61
2022-09-06T09:03:43.629Z,23.67
2022-09-06T09:06:11.087Z,24.02
2022-09-06T09:08:47.904Z,24.12
2022-09-06T09:11:19.959Z,23.86
2022-09-06T09:13:56.161Z,23.96
2022-09-06T09:16:23.407Z,24.21
2022-09-06T09:18:53.883Z,24.38
2022-09-06T09:21:30.766Z,24.35
2022-09-06T09:24:04.870Z,24.42
2022-09-06T09:26:40.391Z,24.56
2022-09-06T09:29:11.720Z,24.51
2022-09-06T09:31:42.382Z,24.85
2022-09-06T09:34:14.946Z,25.20
2022-09-06T09:39:36.110Z,25.61
2022-09-06T09:42:05.350Z,25.86
2022-09-06T09:44:33.042Z,25.89
2022-09-06T09:46:59.627Z,25.88
2022-09-06T09:49:28.173Z,25.86
2022-09-06T09:52:07.648Z,25.90
2022-09-06T09:54:40.793Z,25.83
2022-09-06T09:57:11.843Z,25.77
2022-09-06T09:59:50.242Z,25.95
2022-09-06T10:02:27.405Z,26.12
2022-09-06T10:05:01.142Z,26.52
2022-09-06T10:07:29.596Z,26.66
2022-09-06T10:10:10.936Z,26.48
2022-09-06T10:12:40.274Z,26.05
2022-09-06T10:15:09.985Z,26.24
2022-09-06T10:17:37.549Z,25.95
2022-09-06T10:20:10.461Z,25.98
2022-09-06T10:22:46.203Z,26.25
2022-09-06T10:25:34.721Z,26.36
2022-09-06T10:28:11.598Z,26.56
2022-09-06T10:30:48.264Z,26.65
2022-09-06T10:33:43.684Z,27.01
2022-09-06T10:36:10.132Z,27.06
2022-09-06T10:38:51.023Z,27.28
2022-09-06T10:41:33.261Z,27.28
2022-09-06T10:44:17.826Z,27.24
2022-09-06T10:46:46.205Z,27.47
2022-09-06T10:49:18.774Z,27.52
2022-09-06T10:51:54.274Z,27.62
2022-09-06T10:54:25.276Z,27.73
2022-09-06T10:57:01.839Z,27.65
2022-09-06T11:02:21.756Z,27.38
2022-09-06T11:10:45.414Z,28.66
2022-09-06T11:13:21.153Z,29.12
2022-09-06T11:16:04.090Z,29.64
2022-09-06T11:18:42.267Z,29.81
2022-09-06T11:21:30.452Z,30.09
2022-09-06T11:24:08.862Z,30.35
2022-09-06T11:27:12.766Z,30.26
2022-09-06T11:29:43.507Z,30.13
2022-09-06T11:32:28.737Z,30.38
2022-09-06T11:34:57.880Z,30.65
2022-09-06T11:37:32.764Z,30.89
2022-09-06T11:40:31.181Z,31.04
2022-09-06T11:42:59.267Z,31.31
2022-09-06T11:45:44.931Z,31.01
2022-09-06T11:48:23.695Z,30.85
2022-09-06T11:50:53.198Z,30.64
2022-09-06T11:53:20.819Z,30.35
2022-09-06T11:56:27.613Z,30.46
2022-09-06T11:59:01.831Z,30.33
2022-09-06T12:01:28.291Z,30.37
2022-09-06T12:06:32.702Z,30.79
2022-09-06T12:09:00.063Z,30.53
2022-09-06T12:11:45.953Z,30.66
2022-09-06T12:14:31.194Z,30.09
2022-09-06T12:16:57.732Z,29.98
2022-09-06T12:20:12.457Z,30.18
2022-09-06T12:22:40.346Z,30.47
2022-09-06T12:25:18.964Z,30.80
2022-09-06T12:27:59.709Z,30.62
2022-09-06T12:30:41.988Z,29.99
2022-09-06T12:33:17.306Z,29.57
2022-09-06T12:35:59.932Z,29.36
2022-09-06T12:38:28.444Z,29.44
2022-09-06T12:40:59.022Z,29.25
2022-09-06T12:43:26.982Z,29.18
2022-09-06T12:45:53.688Z,29.23
2022-09-06T12:48:35.775Z,29.26
2022-09-06T12:51:06.992Z,29.38
2022-09-06T12:53:34.838Z,29.72
2022-09-06T12:56:12.775Z,30.19
2022-09-06T12:58:39.553Z,30.65
2022-09-06T13:01:16.186Z,30.56
2022-09-06T13:03:53.865Z,30.34
2022-09-06T13:06:26.763Z,30.21
2022-09-06T13:08:56.896Z,30.35
2022-09-06T13:11:30.616Z,30.44
2022-09-06T13:13:57.350Z,30.50
2022-09-06T13:16:27.230Z,30.52
2022-09-06T13:18:54.413Z,30.57
2022-09-06T13:21:26.197Z,30.59
2022-09-06T13:23:53.318Z,30.67
2022-09-06T13:26:39.689Z,30.69
2022-09-06T13:29:36.677Z,30.71
2022-09-06T13:32:05.693Z,30.56
2022-09-06T13:34:33.555Z,30.69
2022-09-06T13:37:09.426Z,30.73
2022-09-06T13:39:41.664Z,30.97
2022-09-06T13:42:29.520Z,30.98
2022-09-06T13:45:01.790Z,30.66
2022-09-06T13:47:29.647Z,30.41
2022-09-06T13:49:56.137Z,30.32
2022-09-06T13:52:23.057Z,30.46
2022-09-06T13:54:49.524Z,30.57
2022-09-06T13:57:20.021Z,30.68
2022-09-06T13:59:50.190Z,30.61
2022-09-06T14:02:19.357Z,30.54
2022-09-06T14:04:46.059Z,30.50
2022-09-06T14:07:12.678Z,30.57
2022-09-06T14:09:39.226Z,30.39
2022-09-06T14:12:06.884Z,30.60
2022-09-06T14:14:34.260Z,30.62
2022-09-06T14:17:01.275Z,30.41
2022-09-06T14:19:28.768Z,29.67
2022-09-06T14:21:55.325Z,29.41
2022-09-06T14:24:24.353Z,29.53
2022-09-06T14:26:50.942Z,29.84
2022-09-06T14:29:17.451Z,29.96
2022-09-06T14:31:43.998Z,30.08
2022-09-06T14:34:10.524Z,30.12
2022-09-06T14:36:38.592Z,29.94
2022-09-06T14:39:05.135Z,29.92
2022-09-06T14:41:34.249Z,30.05
2022-09-06T14:44:02.663Z,30.18
2022-09-06T14:46:32.162Z,30.18
2022-09-06T14:49:07.549Z,30.35
2022-09-06T14:51:38.514Z,30.50
2022-09-06T14:54:08.158Z,30.41
2022-09-06T14:56:40.390Z,30.26
2022-09-06T14:59:09.109Z,30.28
2022-09-06T15:01:38.633Z,30.35
2022-09-06T15:04:07.476Z,30.42
2022-09-06T15:06:36.757Z,30.51
2022-09-06T15:09:04.269Z,30.42
2022-09-06T15:11:42.216Z,30.47
2022-09-06T15:14:14.092Z,30.36
2022-09-06T15:16:40.829Z,29.94
2022-09-06T15:19:11.200Z,29.92
2022-09-06T15:21:47.660Z,29.68
2022-09-06T15:24:17.538Z,29.65
2022-09-06T15:26:44.616Z,29.69
2022-09-06T15:29:11.931Z,29.76
2022-09-06T15:32:00.445Z,29.73
2022-09-06T15:34:27.084Z,29.60
2022-09-06T15:36:54.387Z,29.43
2022-09-06T15:39:31.013Z,29.32
2022-09-06T15:41:58.260Z,29.30
2022-09-06T15:44:24.790Z,29.38
2022-09-06T15:46:59.486Z,29.37
2022-09-06T15:49:31.831Z,29.57
2022-09-06T15:52:01.072Z,29.55
2022-09-06T15:54:47.160Z,29.77
2022-09-06T15:57:16.248Z,30.53
2022-09-06T15:59:42.892Z,31.59
2022-09-06T16:02:09.816Z,32.33
2022-09-06T16:04:36.559Z,32.87
2022-09-06T16:07:03.458Z,33.58
2022-09-06T16:09:30.329Z,33.85
2022-09-06T16:11:56.862Z,34.17
2022-09-06T16:14:23.504Z,34.44
2022-09-06T16:16:53.844Z,35.37
2022-09-06T16:19:20.566Z,36.33
2022-09-06T16:21:47.200Z,35.87
2022-09-06T16:24:14.354Z,34.63
2022-09-06T16:26:43.366Z,33.37
2022-09-06T16:29:10.681Z,32.41
2022-09-06T16:31:40.324Z,31.56
2022-09-06T16:34:10.962Z,30.62
2022-09-06T16:36:37.854Z,30.27
2022-09-06T16:39:06.308Z,29.90
2022-09-06T16:41:46.923Z,29.58
2022-09-06T16:44:17.517Z,29.35
2022-09-06T16:46:46.028Z,29.03
2022-09-06T16:49:19.827Z,28.80
2022-09-06T16:51:48.500Z,28.68
2022-09-06T16:54:15.757Z,28.61
2022-09-06T16:56:42.821Z,28.54
2022-09-06T16:59:10.623Z,28.40
2022-09-06T17:01:41.394Z,28.29
2022-09-06T17:04:09.541Z,28.25
2022-09-06T17:06:42.140Z,28.09
2022-09-06T17:09:08.726Z,27.91
2022-09-06T17:11:37.128Z,27.75
2022-09-06T17:14:03.770Z,27.67
2022-09-06T17:16:49.078Z,27.57
2022-09-06T17:19:16.219Z,27.45
2022-09-06T17:21:43.594Z,27.38
2022-09-06T17:24:10.623Z,27.26
2022-09-06T17:26:39.167Z,27.15
2022-09-06T17:29:07.101Z,27.06
2022-09-06T17:31:34.048Z,26.92
2022-09-06T17:34:00.787Z,26.86
2022-09-06T17:36:30.624Z,26.72
2022-09-06T17:39:11.140Z,26.56
2022-09-06T17:41:51.366Z,26.45
2022-09-06T17:44:25.436Z,26.38
2022-09-06T17:49:44.357Z,26.12
2022-09-06T17:52:11.774Z,26.19
2022-09-06T17:54:38.641Z,26.12
2022-09-06T17:57:07.337Z,26.15
2022-09-06T17:59:35.644Z,26.12
2022-09-06T18:02:03.621Z,25.99
2022-09-06T18:04:30.286Z,25.83
2022-09-06T18:06:59.669Z,25.58
2022-09-06T18:09:28.811Z,25.57
2022-09-06T18:11:55.472Z,25.37
2022-09-06T18:14:22.076Z,25.31
2022-09-06T18:16:54.306Z,25.12
2022-09-06T18:19:22.264Z,24.97
2022-09-06T18:21:51.863Z,24.85
2022-09-06T18:24:18.437Z,24.77
2022-09-06T18:26:45.320Z,24.72
2022-09-06T18:29:14.647Z,24.66
2022-09-06T18:31:41.538Z,24.66
2022-09-06T18:34:08.836Z,24.66
2022-09-06T18:36:35.543Z,24.63
2022-09-06T18:39:07.845Z,24.51
2022-09-06T18:41:56.158Z,24.40
2022-09-06T18:44:28.270Z,24.32
2022-09-06T18:47:01.128Z,24.18
2022-09-06T18:49:28.503Z,24.03
2022-09-06T18:51:54.987Z,23.91
2022-09-06T18:54:21.733Z,23.96
2022-09-06T18:56:49.962Z,23.85
2022-09-06T18:59:17.474Z,23.72
2022-09-06T19:01:44.310Z,23.53
2022-09-06T19:04:14.459Z,23.45
2022-09-06T19:06:43.158Z,23.49
2022-09-06T19:09:13.536Z,23.37
2022-09-06T19:11:42.768Z,23.33
2022-09-06T19:14:09.826Z,23.29
2022-09-06T19:16:36.536Z,23.22
2022-09-06T19:19:07.196Z,23.13
2022-09-06T19:21:37.927Z,22.97
2022-09-06T19:24:08.230Z,22.85
2022-09-06T19:26:38.997Z,22.69
2022-09-06T19:29:08.806Z,22.58
2022-09-06T19:31:37.143Z,22.71
2022-09-06T19:34:04.680Z,22.71
2022-09-06T19:36:32.023Z,22.58
2022-09-06T19:39:07.289Z,22.54
2022-09-06T19:41:37.844Z,22.50
2022-09-06T19:44:05.795Z,22.51
2022-09-06T19:46:33.149Z,22.41
2022-09-06T19:49:00.639Z,22.33
2022-09-06T19:51:27.666Z,22.28
2022-09-06T19:54:05.617Z,22.23
2022-09-06T19:56:35.844Z,22.24
2022-09-06T19:59:07.856Z,22.19
2022-09-06T20:01:37.976Z,22.16
2022-09-06T20:04:10.766Z,21.99
2022-09-06T20:06:38.158Z,21.92
2022-09-06T20:09:08.640Z,21.88
2022-09-06T20:11:36.771Z,21.70
2022-09-06T20:14:03.937Z,21.71
2022-09-06T20:16:30.674Z,21.58
2022-09-06T20:19:03.537Z,21.58
2022-09-06T20:21:30.684Z,21.64
2022-09-06T20:23:59.265Z,21.70
2022-09-06T20:26:28.953Z,21.65
2022-09-06T20:28:56.471Z,21.62
2022-09-06T20:31:23.690Z,21.51
2022-09-06T20:33:50.211Z,21.44
2022-09-06T20:36:21.127Z,21.45
2022-09-06T20:38:48.356Z,21.34
2022-09-06T20:41:23.827Z,21.19
2022-09-06T20:43:55.053Z,21.17
2022-09-06T20:46:23.738Z,21.02
2022-09-06T20:48:51.773Z,21.06
2022-09-06T20:51:20.959Z,21.02
2022-09-06T20:53:54.760Z,20.90
2022-09-06T20:56:23.878Z,20.94
2022-09-06T20:58:52.773Z,20.94
2022-09-06T21:01:23.631Z,20.87
2022-09-06T21:03:55.444Z,20.71
2022-09-06T21:06:23.360Z,20.71
2022-09-06T21:08:50.995Z,20.65
2022-09-06T21:11:19.091Z,20.68
2022-09-06T21:13:54.179Z,20.66
2022-09-06T21:16:24.620Z,20.61
2022-09-06T21:18:53.369Z,20.53
2022-09-06T21:21:21.726Z,20.50
2022-09-06T21:23:51.910Z,20.52
2022-09-06T21:26:18.675Z,20.40
2022-09-06T21:28:49.409Z,20.48
2022-09-06T21:31:19.351Z,20.45
2022-09-06T21:33:50.746Z,20.36
2022-09-06T21:36:19.958Z,20.37
2022-09-06T21:38:48.999Z,20.38
2022-09-06T21:41:17.086Z,20.31
2022-09-06T21:43:44.456Z,20.36
2022-09-06T21:46:16.786Z,20.27
2022-09-06T21:48:45.723Z,20.28
2022-09-06T21:51:17.545Z,20.24
2022-09-06T21:53:46.168Z,20.24
2022-09-06T21:56:13.763Z,20.28
2022-09-06T21:58:40.464Z,20.25
2022-09-06T22:01:08.031Z,20.29
2022-09-06T22:03:36.922Z,20.24
2022-09-06T22:06:11.665Z,20.25
2022-09-06T22:08:46.615Z,20.24
2022-09-06T22:11:19.415Z,20.21
2022-09-06T22:13:47.235Z,20.19
2022-09-06T22:16:16.989Z,20.13
2022-09-06T22:18:44.900Z,19.96
2022-09-06T22:21:21.304Z,19.98
2022-09-06T22:24:00.028Z,19.92
2022-09-06T22:26:29.104Z,19.87
2022-09-06T22:28:57.917Z,19.90
2022-09-06T22:31:27.844Z,19.90
2022-09-06T22:33:54.978Z,19.88
2022-09-06T22:36:23.975Z,19.83
2022-09-06T22:38:57.088Z,19.83
2022-09-06T22:41:29.056Z,19.79
2022-09-06T22:43:56.535Z,19.72
2022-09-06T22:46:23.460Z,19.70
2022-09-06T22:48:50.343Z,19.67
2022-09-06T22:51:17.221Z,19.67
2022-09-06T22:53:46.975Z,19.66
2022-09-06T22:56:13.527Z,19.64
2022-09-06T22:58:40.086Z,19.56
2022-09-06T23:01:09.404Z,19.59
2022-09-06T23:03:36.782Z,19.55
2022-09-06T23:06:03.952Z,19.42
2022-09-06T23:08:31.143Z,19.38
2022-09-06T23:10:57.796Z,19.36
2022-09-06T23:13:24.384Z,19.33
2022-09-06T23:15:50.999Z,19.22
2022-09-06T23:18:17.545Z,19.18
2022-09-06T23:20:44.294Z,19.18
2022-09-06T23:23:11.051Z,19.23
2022-09-06T23:25:38.807Z,19.19
2022-09-06T23:28:05.966Z,19.23
2022-09-06T23:30:32.805Z,19.19
2022-09-06T23:32:59.367Z,19.20
2022-09-06T23:35:25.901Z,19.17
2022-09-06T23:37:53.403Z,19.14
2022-09-06T23:40:19.955Z,19.08
2022-09-06T23:42:47.348Z,19.09
2022-09-06T23:45:14.035Z,18.99
2022-09-06T23:47:41.131Z,18.99
2022-09-06T23:50:08.115Z,19.02
2022-09-06T23:52:34.568Z,18.93
2022-09-06T23:55:01.212Z,18.95
2022-09-06T23:57:27.728Z,18.87
2022-09-06T23:59:54.230Z,18.95
